createdAt,value
2023-04-04T00:00:25.581Z,1.96
2023-04-04T00:02:54.794Z,2.01
2023-04-04T00:05:21.302Z,2.02
2023-04-04T00:07:48.023Z,1.90
2023-04-04T00:10:15.038Z,1.81
2023-04-04T00:12:42.313Z,1.88
2023-04-04T00:15:09.285Z,2.03
2023-04-04T00:17:35.772Z,2.08
2023-04-04T00:20:04.499Z,2.09
2023-04-04T00:22:31.538Z,2.01
2023-04-04T00:24:58.151Z,2.04
2023-04-04T00:27:24.620Z,2.14
2023-04-04T00:29:51.091Z,1.95
2023-04-04T00:32:17.580Z,1.88
2023-04-04T00:34:44.070Z,1.88
2023-04-04T00:37:13.089Z,2.10
2023-04-04T00:39:39.697Z,2.00
2023-04-04T00:42:06.644Z,2.04
2023-04-04T00:44:35.704Z,2.10
2023-04-04T00:47:03.214Z,2.04
2023-04-04T00:49:29.693Z,2.03
2023-04-04T00:51:56.889Z,1.87
2023-04-04T00:54:23.495Z,1.93
2023-04-04T00:56:55.110Z,1.84
2023-04-04T00:59:27.784Z,1.66
2023-04-04T01:01:54.417Z,1.91
2023-04-04T01:04:21.247Z,2.02
2023-04-04T01:06:47.808Z,1.88
2023-04-04T01:09:14.257Z,1.93
2023-04-04T01:11:40.815Z,2.00
2023-04-04T01:14:07.438Z,1.83
2023-04-04T01:16:35.943Z,1.65
2023-04-04T01:19:02.969Z,1.22
2023-04-04T01:21:29.663Z,1.35
2023-04-04T01:24:01.347Z,1.70
2023-04-04T01:26:28.954Z,1.51
2023-04-04T01:28:56.461Z,1.58
2023-04-04T01:31:44.136Z,1.48
2023-04-04T01:34:38.070Z,1.20
2023-04-04T01:37:23.248Z,1.32
2023-04-04T01:39:54.060Z,1.41
2023-04-04T01:42:20.559Z,1.27
2023-04-04T01:44:47.300Z,1.53
2023-04-04T01:47:13.804Z,1.43
2023-04-04T01:49:40.885Z,1.24
2023-04-04T01:52:07.432Z,1.19
2023-04-04T01:54:35.918Z,1.14
2023-04-04T01:57:02.618Z,1.65
2023-04-04T01:59:29.310Z,1.23
2023-04-04T02:01:56.267Z,1.06
2023-04-04T02:04:23.227Z,1.23
2023-04-04T02:06:50.334Z,1.24
2023-04-04T02:09:16.847Z,1.43
2023-04-04T02:11:43.310Z,1.29
2023-04-04T02:14:09.852Z,1.28
2023-04-04T02:16:36.328Z,1.32
2023-04-04T02:19:02.935Z,1.48
2023-04-04T02:21:29.394Z,1.62
2023-04-04T02:23:55.828Z,1.60
2023-04-04T02:26:22.511Z,1.54
2023-04-04T02:28:48.971Z,1.30
2023-04-04T02:31:15.793Z,1.58
2023-04-04T02:33:42.284Z,1.82
2023-04-04T02:36:09.107Z,1.88
2023-04-04T02:38:35.552Z,1.75
2023-04-04T02:41:02.044Z,2.01
2023-04-04T02:43:28.479Z,2.12
2023-04-04T02:45:55.003Z,2.00
2023-04-04T02:48:21.477Z,1.67
2023-04-04T02:50:48.090Z,1.63
2023-04-04T02:53:14.614Z,1.50
2023-04-04T02:55:41.107Z,1.58
2023-04-04T02:58:07.648Z,1.72
2023-04-04T03:00:34.114Z,1.68
2023-04-04T03:03:00.683Z,1.30
2023-04-04T03:05:28.375Z,1.87
2023-04-04T03:07:58.265Z,2.00
2023-04-04T03:10:25.803Z,2.00
2023-04-04T03:12:52.339Z,1.88
2023-04-04T03:15:19.568Z,1.94
2023-04-04T03:17:46.740Z,1.97
2023-04-04T03:20:15.123Z,1.91
2023-04-04T03:22:42.213Z,1.89
2023-04-04T03:25:09.370Z,2.06
2023-04-04T03:27:35.910Z,1.72
2023-04-04T03:30:02.846Z,1.96
2023-04-04T03:32:29.802Z,1.97
2023-04-04T03:34:56.542Z,2.02
2023-04-04T03:37:23.274Z,1.69
2023-04-04T03:39:49.743Z,1.47
2023-04-04T03:42:16.838Z,1.72
2023-04-04T03:44:43.289Z,1.75
2023-04-04T03:47:09.803Z,1.88
2023-04-04T03:49:36.309Z,1.88
2023-04-04T03:52:03.287Z,1.68
2023-04-04T03:54:29.745Z,1.81
2023-04-04T03:56:57.078Z,1.85
2023-04-04T03:59:23.775Z,1.45
2023-04-04T04:01:50.695Z,1.65
2023-04-04T04:04:17.179Z,1.72
2023-04-04T04:06:44.115Z,1.64
2023-04-04T04:09:12.296Z,1.87
2023-04-04T04:11:38.828Z,1.84
2023-04-04T04:14:05.441Z,1.69
2023-04-04T04:16:33.023Z,2.05
2023-04-04T04:18:59.730Z,1.76
2023-04-04T04:21:26.262Z,1.41
2023-04-04T04:23:52.771Z,0.99
2023-04-04T04:26:19.299Z,1.43
2023-04-04T04:28:48.188Z,1.50
2023-04-04T04:31:14.856Z,1.43
2023-04-04T04:33:41.590Z,1.51
2023-04-04T04:36:08.318Z,1.36
2023-04-04T04:38:34.845Z,1.91
2023-04-04T04:41:01.907Z,2.03
2023-04-04T04:43:28.385Z,2.09
2023-04-04T04:45:54.980Z,2.10
2023-04-04T04:48:21.508Z,1.94
2023-04-04T04:50:48.387Z,1.96
2023-04-04T04:53:14.972Z,2.09
2023-04-04T04:55:43.167Z,1.92
2023-04-04T04:58:10.838Z,1.64
2023-04-04T05:00:38.306Z,1.59
2023-04-04T05:03:07.990Z,1.96
2023-04-04T05:05:34.779Z,2.01
2023-04-04T05:08:02.755Z,2.05
2023-04-04T05:10:30.040Z,2.06
2023-04-04T05:12:56.636Z,2.37
2023-04-04T05:15:23.287Z,2.46
2023-04-04T05:17:49.868Z,2.40
2023-04-04T05:20:16.359Z,2.30
2023-04-04T05:22:46.520Z,2.03
2023-04-04T05:25:13.376Z,2.04
2023-04-04T05:27:40.721Z,2.22
2023-04-04T05:30:07.967Z,2.19
2023-04-04T05:32:34.599Z,2.13
2023-04-04T05:35:01.395Z,1.88
2023-04-04T05:37:28.128Z,2.32
2023-04-04T05:39:55.239Z,2.32
2023-04-04T05:42:21.964Z,2.09
2023-04-04T05:44:48.483Z,1.98
2023-04-04T05:47:14.996Z,2.22
2023-04-04T05:49:41.571Z,2.35
2023-04-04T05:52:08.186Z,2.21
2023-04-04T05:54:34.680Z,2.36
2023-04-04T05:57:01.132Z,2.30
2023-04-04T05:59:28.695Z,2.09
2023-04-04T06:01:55.278Z,2.23
2023-04-04T06:04:21.810Z,2.27
2023-04-04T06:06:48.300Z,2.58
2023-04-04T06:09:14.784Z,2.90
2023-04-04T06:11:41.404Z,2.82
2023-04-04T06:14:08.749Z,2.94
2023-04-04T06:16:35.926Z,3.19
2023-04-04T06:19:02.894Z,3.22
2023-04-04T06:21:29.446Z,3.24
2023-04-04T06:23:55.925Z,3.28
2023-04-04T06:26:22.399Z,3.29
2023-04-04T06:28:49.816Z,3.49
2023-04-04T06:31:17.178Z,3.54
2023-04-04T06:33:43.905Z,3.49
2023-04-04T06:36:10.466Z,3.40
2023-04-04T06:38:37.022Z,3.73
2023-04-04T06:41:03.516Z,3.65
2023-04-04T06:43:30.975Z,3.96
2023-04-04T06:45:57.597Z,4.01
2023-04-04T06:48:24.057Z,4.41
2023-04-04T06:50:50.499Z,4.20
2023-04-04T06:53:17.260Z,4.22
2023-04-04T06:55:43.748Z,4.53
2023-04-04T06:58:10.510Z,4.62
2023-04-04T07:00:37.169Z,4.86
2023-04-04T07:03:04.087Z,5.07
2023-04-04T07:05:32.245Z,5.21
2023-04-04T07:07:58.849Z,4.96
2023-04-04T07:10:27.536Z,4.92
2023-04-04T07:12:53.997Z,4.50
2023-04-04T07:15:20.478Z,4.75
2023-04-04T07:17:47.283Z,5.01
2023-04-04T07:20:13.915Z,5.47
2023-04-04T07:22:41.405Z,5.21
2023-04-04T07:25:08.791Z,5.31
2023-04-04T07:27:36.076Z,5.67
2023-04-04T07:30:04.309Z,6.00
2023-04-04T07:32:31.138Z,5.86
2023-04-04T07:34:58.026Z,5.67
2023-04-04T07:37:26.614Z,6.19
2023-04-04T07:39:53.200Z,6.50
2023-04-04T07:42:23.246Z,6.49
2023-04-04T07:44:50.577Z,6.08
2023-04-04T07:47:17.717Z,6.19
2023-04-04T07:49:44.895Z,6.82
2023-04-04T07:52:11.383Z,6.80
2023-04-04T07:54:38.099Z,6.10
2023-04-04T07:57:09.770Z,6.48
2023-04-04T07:59:37.234Z,5.97
2023-04-04T08:02:03.854Z,6.48
2023-04-04T08:04:30.709Z,6.19
2023-04-04T08:06:57.578Z,6.83
2023-04-04T08:09:24.957Z,6.40
2023-04-04T08:11:51.688Z,6.55
2023-04-04T08:14:18.228Z,7.54
2023-04-04T08:16:44.681Z,7.55
2023-04-04T08:19:11.510Z,7.97
2023-04-04T08:21:38.159Z,7.47
2023-04-04T08:24:05.108Z,6.89
2023-04-04T08:26:31.978Z,7.79
2023-04-04T08:28:58.627Z,8.07
2023-04-04T08:31:25.191Z,8.05
2023-04-04T08:33:52.507Z,8.12
2023-04-04T08:36:19.693Z,9.10
2023-04-04T08:38:46.156Z,8.42
2023-04-04T08:41:13.413Z,7.90
2023-04-04T08:43:41.620Z,8.29
2023-04-04T08:46:11.526Z,7.76
2023-04-04T08:48:39.366Z,8.41
2023-04-04T08:51:09.194Z,8.07
2023-04-04T08:53:37.172Z,7.97
2023-04-04T08:56:04.523Z,9.22
2023-04-04T08:58:31.171Z,9.03
2023-04-04T09:00:57.743Z,9.67
2023-04-04T09:03:26.708Z,9.64
2023-04-04T09:05:56.680Z,9.46
2023-04-04T09:08:26.123Z,9.48
2023-04-04T09:10:53.186Z,9.23
2023-04-04T09:13:19.959Z,9.25
2023-04-04T09:15:52.292Z,9.32
2023-04-04T09:18:19.104Z,9.84
2023-04-04T09:20:48.950Z,9.54
2023-04-04T09:23:23.858Z,9.13
2023-04-04T09:28:24.632Z,9.51
2023-04-04T09:30:52.194Z,9.05
2023-04-04T09:33:21.602Z,9.61
2023-04-04T09:35:54.631Z,8.69
2023-04-04T09:38:23.737Z,8.77
2023-04-04T09:40:52.643Z,9.07
2023-04-04T09:43:19.576Z,10.01
2023-04-04T09:45:46.343Z,9.30
2023-04-04T09:48:13.670Z,9.32
2023-04-04T09:50:49.603Z,9.82
2023-04-04T09:53:19.394Z,9.94
2023-04-04T09:55:54.287Z,9.05
2023-04-04T09:58:29.005Z,9.41
2023-04-04T10:00:57.477Z,10.19
2023-04-04T10:03:24.423Z,9.46
2023-04-04T10:06:00.266Z,9.41
2023-04-04T10:08:28.503Z,9.61
2023-04-04T10:11:11.391Z,10.72
2023-04-04T10:13:43.776Z,10.36
2023-04-04T10:16:11.153Z,10.18
2023-04-04T10:18:38.123Z,9.62
2023-04-04T10:23:37.037Z,10.51
2023-04-04T10:26:03.521Z,10.74
2023-04-04T10:28:30.085Z,10.97
2023-04-04T10:31:07.112Z,10.67
2023-04-04T10:34:12.464Z,11.35
2023-04-04T10:36:47.209Z,11.73
2023-04-04T10:39:17.611Z,11.81
2023-04-04T10:41:46.259Z,11.44
2023-04-04T10:44:20.984Z,11.05
2023-04-04T10:46:51.040Z,10.83
2023-04-04T10:49:18.127Z,9.86
2023-04-04T10:51:54.851Z,10.40
2023-04-04T10:54:23.500Z,10.38
2023-04-04T10:56:50.182Z,11.01
2023-04-04T10:59:20.197Z,11.14
2023-04-04T11:01:55.052Z,10.93
2023-04-04T11:04:31.092Z,10.89
2023-04-04T11:07:05.271Z,10.81
2023-04-04T11:09:54.170Z,10.21
2023-04-04T11:12:23.985Z,10.58
2023-04-04T11:15:11.467Z,10.33
2023-04-04T11:17:43.632Z,10.57
2023-04-04T11:20:11.706Z,11.54
2023-04-04T11:22:42.735Z,11.16
2023-04-04T11:25:24.918Z,9.98
2023-04-04T11:27:54.972Z,10.18
2023-04-04T11:30:21.559Z,11.51
2023-04-04T11:32:59.762Z,11.99
2023-04-04T11:35:30.636Z,11.56
2023-04-04T11:37:57.060Z,10.75
2023-04-04T11:40:41.685Z,10.89
2023-04-04T11:43:12.092Z,11.16
2023-04-04T11:45:44.558Z,11.65
2023-04-04T11:48:11.222Z,11.88
2023-04-04T11:50:43.459Z,11.15
2023-04-04T11:53:11.319Z,10.93
2023-04-04T11:55:47.257Z,10.88
2023-04-04T11:58:16.137Z,10.87
2023-04-04T12:00:44.197Z,11.49
2023-04-04T12:03:12.341Z,11.26
2023-04-04T12:05:40.342Z,10.29
2023-04-04T12:08:08.761Z,10.84
2023-04-04T12:10:36.242Z,10.32
2023-04-04T12:13:07.276Z,10.85
2023-04-04T12:15:37.892Z,10.80
2023-04-04T12:18:07.550Z,10.56
2023-04-04T12:20:34.195Z,10.89
2023-04-04T12:23:00.868Z,11.22
2023-04-04T12:25:28.549Z,11.82
2023-04-04T12:27:55.588Z,11.05
2023-04-04T12:30:22.305Z,11.91
2023-04-04T12:32:50.165Z,10.81
2023-04-04T12:35:17.100Z,11.43
2023-04-04T12:37:58.882Z,10.56
2023-04-04T12:40:30.436Z,10.17
2023-04-04T12:42:57.342Z,11.02
2023-04-04T12:45:26.236Z,11.30
2023-04-04T12:47:54.195Z,11.07
2023-04-04T12:50:27.404Z,10.32
2023-04-04T12:52:57.433Z,10.03
2023-04-04T12:55:31.559Z,10.47
2023-04-04T12:58:00.858Z,10.77
2023-04-04T13:00:27.534Z,10.21
2023-04-04T13:02:55.872Z,10.84
2023-04-04T13:05:25.798Z,12.14
2023-04-04T13:08:05.514Z,12.24
2023-04-04T13:10:57.754Z,12.52
2023-04-04T13:14:00.639Z,12.24
2023-04-04T13:16:33.105Z,11.28
2023-04-04T13:18:59.726Z,11.89
2023-04-04T13:21:26.287Z,11.17
2023-04-04T13:23:52.972Z,10.74
2023-04-04T13:26:19.458Z,10.61
2023-04-04T13:28:46.174Z,11.26
2023-04-04T13:31:13.468Z,11.25
2023-04-04T13:33:40.286Z,10.67
2023-04-04T13:36:07.015Z,10.67
2023-04-04T13:38:33.581Z,11.30
2023-04-04T13:41:00.710Z,11.29
2023-04-04T13:43:27.760Z,11.11
2023-04-04T13:45:55.752Z,11.06
2023-04-04T13:48:22.800Z,11.38
2023-04-04T13:50:53.256Z,11.48
2023-04-04T13:53:20.159Z,11.96
2023-04-04T13:56:12.973Z,10.88
2023-04-04T13:58:33.305Z,9.43
2023-04-04T14:01:03.451Z,10.20
2023-04-04T14:03:31.442Z,10.18
2023-04-04T14:06:00.337Z,10.93
2023-04-04T14:08:31.034Z,10.15
2023-04-04T14:10:57.706Z,9.88
2023-04-04T14:13:24.162Z,10.23
2023-04-04T14:15:50.978Z,10.23
2023-04-04T14:18:17.496Z,10.01
2023-04-04T14:20:44.126Z,9.12
2023-04-04T14:23:10.747Z,9.61
2023-04-04T14:25:37.208Z,9.73
2023-04-04T14:28:03.857Z,10.12
2023-04-04T14:30:30.532Z,9.90
2023-04-04T14:32:57.037Z,10.51
2023-04-04T14:35:23.627Z,10.22
2023-04-04T14:37:50.101Z,10.09
2023-04-04T14:40:16.789Z,10.47
2023-04-04T14:42:43.249Z,9.76
2023-04-04T14:45:11.355Z,10.43
2023-04-04T14:47:37.972Z,10.99
2023-04-04T14:50:04.937Z,9.93
2023-04-04T14:52:31.672Z,9.60
2023-04-04T14:54:58.271Z,9.84
2023-04-04T14:57:24.929Z,10.48
2023-04-04T14:59:51.450Z,10.13
2023-04-04T15:02:18.284Z,10.40
2023-04-04T15:04:44.909Z,10.38
2023-04-04T15:07:11.498Z,10.45
2023-04-04T15:09:37.946Z,10.45
2023-04-04T15:12:06.701Z,10.92
2023-04-04T15:14:33.202Z,9.82
2023-04-04T15:16:59.960Z,9.13
2023-04-04T15:19:26.407Z,9.05
2023-04-04T15:21:53.322Z,9.57
2023-04-04T15:24:19.746Z,9.55
2023-04-04T15:26:46.492Z,9.07
2023-04-04T15:29:14.650Z,8.83
2023-04-04T15:31:41.504Z,9.25
2023-04-04T15:34:09.498Z,9.45
2023-04-04T15:36:36.551Z,9.58
2023-04-04T15:39:03.523Z,10.23
2023-04-04T15:41:30.161Z,10.04
2023-04-04T15:43:56.646Z,9.73
2023-04-04T15:46:23.226Z,9.46
2023-04-04T15:48:52.054Z,9.90
2023-04-04T15:51:18.666Z,10.42
2023-04-04T15:53:45.161Z,9.42
2023-04-04T15:56:11.860Z,9.32
2023-04-04T15:58:38.314Z,9.33
2023-04-04T16:01:06.598Z,9.64
2023-04-04T16:03:33.148Z,9.09
2023-04-04T16:06:00.759Z,8.98
2023-04-04T16:08:27.234Z,9.28
2023-04-04T16:10:53.762Z,8.87
2023-04-04T16:13:20.446Z,8.89
2023-04-04T16:15:50.184Z,8.87
2023-04-04T16:18:16.676Z,9.57
2023-04-04T16:20:43.138Z,9.82
2023-04-04T16:23:09.645Z,10.22
2023-04-04T16:25:36.386Z,9.65
2023-04-04T16:28:03.938Z,10.07
2023-04-04T16:30:30.430Z,9.84
2023-04-04T16:32:56.950Z,9.04
2023-04-04T16:35:23.516Z,9.30
2023-04-04T16:37:49.991Z,9.23
2023-04-04T16:40:16.618Z,9.05
2023-04-04T16:42:43.073Z,9.30
2023-04-04T16:45:10.365Z,9.71
2023-04-04T16:47:37.061Z,9.36
2023-04-04T16:50:04.869Z,9.56
2023-04-04T16:52:31.368Z,9.23
2023-04-04T16:54:57.821Z,9.11
2023-04-04T16:57:24.450Z,9.64
2023-04-04T16:59:50.898Z,9.36
2023-04-04T17:02:17.481Z,9.24
2023-04-04T17:04:44.562Z,8.97
2023-04-04T17:07:11.151Z,9.09
2023-04-04T17:09:41.337Z,8.85
2023-04-04T17:12:08.195Z,8.84
2023-04-04T17:14:35.567Z,8.86
2023-04-04T17:17:02.157Z,9.03
2023-04-04T17:19:30.325Z,8.53
2023-04-04T17:21:58.206Z,8.41
2023-04-04T17:24:25.618Z,8.72
2023-04-04T17:26:52.385Z,8.54
2023-04-04T17:29:18.967Z,8.55
2023-04-04T17:31:48.960Z,8.79
2023-04-04T17:34:16.190Z,8.62
2023-04-04T17:36:42.968Z,8.58
2023-04-04T17:39:09.596Z,8.60
2023-04-04T17:41:36.298Z,8.72
2023-04-04T17:44:03.768Z,8.68
2023-04-04T17:46:31.326Z,8.61
2023-04-04T17:48:57.857Z,8.48
2023-04-04T17:51:24.342Z,8.02
2023-04-04T17:53:51.254Z,8.24
2023-04-04T17:56:18.826Z,8.50
2023-04-04T17:58:45.759Z,8.69
2023-04-04T18:01:13.767Z,8.47
2023-04-04T18:03:40.554Z,8.38
2023-04-04T18:06:07.167Z,8.26
2023-04-04T18:08:33.610Z,8.47
2023-04-04T18:11:00.146Z,8.43
2023-04-04T18:13:26.707Z,8.41
2023-04-04T18:15:53.343Z,8.04
2023-04-04T18:18:21.309Z,7.81
2023-04-04T18:20:48.278Z,7.76
2023-04-04T18:23:16.798Z,7.62
2023-04-04T18:25:43.304Z,7.49
2023-04-04T18:28:11.631Z,7.53
2023-04-04T18:30:39.072Z,7.30
2023-04-04T18:33:06.448Z,7.04
2023-04-04T18:35:33.042Z,7.23
2023-04-04T18:38:03.003Z,6.86
2023-04-04T18:40:29.540Z,7.25
2023-04-04T18:42:56.487Z,6.92
2023-04-04T18:45:29.881Z,6.68
2023-04-04T18:48:01.393Z,6.85
2023-04-04T18:50:28.598Z,6.83
2023-04-04T18:52:56.801Z,6.82
2023-04-04T18:55:23.278Z,6.80
2023-04-04T18:57:49.815Z,6.28
2023-04-04T19:00:16.657Z,6.02
2023-04-04T19:02:43.203Z,5.60
2023-04-04T19:05:12.316Z,6.11
2023-04-04T19:07:40.275Z,6.24
2023-04-04T19:10:07.407Z,6.11
2023-04-04T19:12:34.058Z,6.15
2023-04-04T19:15:01.363Z,6.06
2023-04-04T19:17:27.980Z,6.12
2023-04-04T19:19:54.425Z,6.17
2023-04-04T19:22:20.851Z,6.10
2023-04-04T19:24:47.316Z,6.05
2023-04-04T19:27:13.790Z,6.03
2023-04-04T19:29:40.414Z,6.02
2023-04-04T19:32:13.872Z,6.03
2023-04-04T19:34:42.610Z,5.94
2023-04-04T19:37:13.303Z,5.67
2023-04-04T19:39:42.187Z,5.69
2023-04-04T19:42:09.325Z,5.82
2023-04-04T19:44:42.866Z,5.58
2023-04-04T19:47:10.538Z,5.53
2023-04-04T19:49:38.182Z,5.41
2023-04-04T19:52:05.737Z,5.34
2023-04-04T19:54:42.951Z,5.44
2023-04-04T19:57:17.547Z,5.48
2023-04-04T20:00:13.578Z,5.28
2023-04-04T20:02:51.466Z,4.82
2023-04-04T20:05:41.541Z,4.94
2023-04-04T20:08:09.671Z,5.07
2023-04-04T20:10:38.285Z,5.05
2023-04-04T20:13:08.527Z,4.79
2023-04-04T20:15:47.665Z,4.82
2023-04-04T20:18:24.467Z,4.75
2023-04-04T20:21:07.207Z,4.84
2023-04-04T20:23:49.569Z,4.79
2023-04-04T20:26:35.100Z,4.86
2023-04-04T20:29:12.040Z,4.86
2023-04-04T20:31:45.559Z,4.64
2023-04-04T20:34:41.379Z,4.47
2023-04-04T20:37:26.613Z,4.52
2023-04-04T20:40:01.127Z,4.63
2023-04-04T20:42:31.057Z,4.60
2023-04-04T20:45:10.282Z,4.61
2023-04-04T20:47:45.757Z,4.53
2023-04-04T20:50:18.487Z,4.44
2023-04-04T20:52:59.719Z,4.24
2023-04-04T20:55:28.421Z,4.15
2023-04-04T20:58:34.343Z,4.24
2023-04-04T21:01:05.522Z,4.11
2023-04-04T21:03:35.621Z,4.19
2023-04-04T21:06:11.566Z,4.11
2023-04-04T21:08:49.746Z,4.21
2023-04-04T21:11:30.212Z,4.11
2023-04-04T21:13:57.847Z,4.18
2023-04-04T21:16:26.648Z,4.01
2023-04-04T21:18:57.915Z,4.12
2023-04-04T21:21:24.386Z,4.03
2023-04-04T21:23:55.501Z,4.07
2023-04-04T21:26:28.806Z,4.11
2023-04-04T21:28:56.916Z,3.92
2023-04-04T21:31:26.223Z,3.93
2023-04-04T21:33:54.698Z,3.82
2023-04-04T21:36:24.121Z,3.72
2023-04-04T21:38:52.138Z,3.76
2023-04-04T21:41:25.869Z,3.72
2023-04-04T21:43:57.138Z,3.43
2023-04-04T21:46:25.731Z,3.34
2023-04-04T21:48:53.157Z,3.40
2023-04-04T21:51:19.864Z,3.74
2023-04-04T21:53:46.786Z,3.93
2023-04-04T21:56:13.996Z,3.98
2023-04-04T21:58:41.200Z,3.99
2023-04-04T22:01:08.158Z,3.68
2023-04-04T22:03:34.902Z,3.64
2023-04-04T22:06:01.375Z,3.48
2023-04-04T22:08:27.945Z,3.48
2023-04-04T22:10:54.486Z,3.64
2023-04-04T22:13:22.678Z,3.65
2023-04-04T22:15:49.816Z,3.69
2023-04-04T22:18:16.949Z,3.85
2023-04-04T22:20:47.662Z,3.94
2023-04-04T22:23:15.601Z,3.88
2023-04-04T22:25:42.164Z,3.77
2023-04-04T22:28:09.179Z,3.74
2023-04-04T22:30:38.787Z,3.76
2023-04-04T22:33:05.825Z,3.66
2023-04-04T22:35:32.908Z,3.37
2023-04-04T22:38:00.820Z,3.19
2023-04-04T22:40:30.709Z,3.55
2023-04-04T22:42:57.540Z,3.71
2023-04-04T22:45:24.667Z,3.48
2023-04-04T22:47:51.424Z,3.60
2023-04-04T22:50:24.490Z,3.38
2023-04-04T22:52:52.412Z,3.66
2023-04-04T22:55:20.844Z,3.63
2023-04-04T22:57:47.349Z,3.64
2023-04-04T23:00:14.719Z,3.44
2023-04-04T23:02:43.187Z,3.59
2023-04-04T23:05:11.332Z,3.54
2023-04-04T23:07:38.483Z,3.36
2023-04-04T23:10:06.375Z,3.30
2023-04-04T23:12:32.877Z,3.15
2023-04-04T23:15:01.502Z,3.11
2023-04-04T23:17:28.121Z,3.21
2023-04-04T23:19:55.110Z,3.45
2023-04-04T23:22:21.761Z,3.64
2023-04-04T23:24:48.558Z,3.90
2023-04-04T23:27:16.013Z,3.81
2023-04-04T23:29:42.953Z,3.63
2023-04-04T23:32:10.303Z,3.81
2023-04-04T23:34:37.818Z,3.69
2023-04-04T23:37:05.026Z,3.61
2023-04-04T23:39:31.811Z,3.54
2023-04-04T23:42:01.150Z,3.47
2023-04-04T23:44:27.650Z,3.40
2023-04-04T23:46:54.274Z,3.41
2023-04-04T23:49:20.805Z,3.03
2023-04-04T23:51:47.332Z,3.11
2023-04-04T23:54:13.810Z,3.04
2023-04-04T23:56:40.782Z,3.12
2023-04-04T23:59:07.457Z,3.36
